createdAt,value
2022-10-09T00:01:34.731Z,5.56
2022-10-09T00:04:03.274Z,5.53
2022-10-09T00:06:34.707Z,5.49
2022-10-09T00:09:05.497Z,5.46
2022-10-09T00:11:35.502Z,5.51
2022-10-09T00:14:05.348Z,5.41
2022-10-09T00:16:33.632Z,5.42
2022-10-09T00:19:01.971Z,5.43
2022-10-09T00:21:32.343Z,5.29
2022-10-09T00:24:04.377Z,5.29
2022-10-09T00:26:33.460Z,5.18
2022-10-09T00:29:01.737Z,5.15
2022-10-09T00:31:30.389Z,5.10
2022-10-09T00:33:58.713Z,5.17
2022-10-09T00:36:28.328Z,5.21
2022-10-09T00:38:57.207Z,5.23
2022-10-09T00:41:30.155Z,5.19
2022-10-09T00:44:01.037Z,5.13
2022-10-09T00:46:36.435Z,5.06
2022-10-09T00:49:15.922Z,5.00
2022-10-09T00:51:45.936Z,5.05
2022-10-09T00:54:17.486Z,5.14
2022-10-09T00:56:47.506Z,4.96
2022-10-09T00:59:16.610Z,4.90
2022-10-09T01:01:45.397Z,4.78
2022-10-09T01:04:14.116Z,4.77
2022-10-09T01:07:05.263Z,4.74
2022-10-09T01:09:42.170Z,4.69
2022-10-09T01:12:21.026Z,4.69
2022-10-09T01:14:58.228Z,4.66
2022-10-09T01:17:34.768Z,4.63
2022-10-09T01:20:23.083Z,4.64
2022-10-09T01:23:07.027Z,4.65
2022-10-09T01:25:41.733Z,4.75
2022-10-09T01:28:12.531Z,4.67
2022-10-09T01:30:41.117Z,4.64
2022-10-09T01:33:11.182Z,4.68
2022-10-09T01:35:41.636Z,4.74
2022-10-09T01:38:10.562Z,4.72
2022-10-09T01:40:39.509Z,4.53
2022-10-09T01:43:07.806Z,4.49
2022-10-09T01:45:42.983Z,4.43
2022-10-09T01:48:17.891Z,4.32
2022-10-09T01:50:48.006Z,4.30
2022-10-09T01:53:20.491Z,4.28
2022-10-09T01:55:55.918Z,4.24
2022-10-09T01:58:29.749Z,4.22
2022-10-09T02:01:06.412Z,4.22
2022-10-09T02:03:36.625Z,4.38
2022-10-09T02:06:07.459Z,4.42
2022-10-09T02:08:38.833Z,4.43
2022-10-09T02:11:08.013Z,4.45
2022-10-09T02:13:37.867Z,4.38
2022-10-09T02:16:14.459Z,4.48
2022-10-09T02:18:46.561Z,4.39
2022-10-09T02:21:18.284Z,4.31
2022-10-09T02:23:49.894Z,4.25
2022-10-09T02:26:19.169Z,4.22
2022-10-09T02:28:48.014Z,4.12
2022-10-09T02:31:24.383Z,4.08
2022-10-09T02:33:57.036Z,4.09
2022-10-09T02:36:25.435Z,4.15
2022-10-09T02:38:55.933Z,4.12
2022-10-09T02:41:24.953Z,4.06
2022-10-09T02:43:53.342Z,3.99
2022-10-09T02:46:23.243Z,4.05
2022-10-09T02:48:51.875Z,4.01
2022-10-09T02:51:20.114Z,4.05
2022-10-09T02:53:48.486Z,3.93
2022-10-09T02:56:16.821Z,3.93
2022-10-09T02:58:45.281Z,3.89
2022-10-09T03:01:14.164Z,3.91
2022-10-09T03:03:44.002Z,3.90
2022-10-09T03:06:14.290Z,3.92
2022-10-09T03:08:44.853Z,3.92
2022-10-09T03:11:14.227Z,3.91
2022-10-09T03:13:42.853Z,3.91
2022-10-09T03:16:13.324Z,3.89
2022-10-09T03:18:43.594Z,3.86
2022-10-09T03:21:14.842Z,3.90
2022-10-09T03:23:43.309Z,3.84
2022-10-09T03:26:12.947Z,3.82
2022-10-09T03:28:42.977Z,3.78
2022-10-09T03:31:27.308Z,3.74
2022-10-09T03:34:01.356Z,3.71
2022-10-09T03:36:29.725Z,3.78
2022-10-09T03:38:57.911Z,3.65
2022-10-09T03:41:26.275Z,3.63
2022-10-09T03:43:54.470Z,3.61
2022-10-09T03:46:22.696Z,3.56
2022-10-09T03:48:51.137Z,3.52
2022-10-09T03:51:20.715Z,3.58
2022-10-09T03:53:49.101Z,3.54
2022-10-09T03:56:17.200Z,3.48
2022-10-09T03:58:45.365Z,3.50
2022-10-09T04:01:13.658Z,3.42
2022-10-09T04:03:41.809Z,3.36
2022-10-09T04:06:10.083Z,3.35
2022-10-09T04:08:39.912Z,3.54
2022-10-09T04:11:08.414Z,3.36
2022-10-09T04:13:36.672Z,3.52
2022-10-09T04:16:05.236Z,3.50
2022-10-09T04:18:33.657Z,3.51
2022-10-09T04:21:01.919Z,3.45
2022-10-09T04:23:30.017Z,3.35
2022-10-09T04:26:01.066Z,3.24
2022-10-09T04:28:30.211Z,3.26
2022-10-09T04:30:59.138Z,3.20
2022-10-09T04:33:28.257Z,3.18
2022-10-09T04:35:57.772Z,3.33
2022-10-09T04:38:26.672Z,3.39
2022-10-09T04:41:00.131Z,3.28
2022-10-09T04:43:28.819Z,3.32
2022-10-09T04:45:57.378Z,3.34
2022-10-09T04:48:25.837Z,3.27
2022-10-09T04:50:53.899Z,3.14
2022-10-09T04:53:22.150Z,3.02
2022-10-09T04:55:50.316Z,2.96
2022-10-09T04:58:19.865Z,2.94
2022-10-09T05:00:48.928Z,2.93
2022-10-09T05:03:16.951Z,2.85
2022-10-09T05:05:45.129Z,2.89
2022-10-09T05:08:13.120Z,3.03
2022-10-09T05:10:41.228Z,2.84
2022-10-09T05:13:09.413Z,2.80
2022-10-09T05:15:39.376Z,2.77
2022-10-09T05:18:07.711Z,2.56
2022-10-09T05:20:35.907Z,2.71
2022-10-09T05:23:03.978Z,2.69
2022-10-09T05:25:32.099Z,2.48
2022-10-09T05:28:00.472Z,2.61
2022-10-09T05:30:28.645Z,2.56
2022-10-09T05:32:58.228Z,2.49
2022-10-09T05:35:26.293Z,2.42
2022-10-09T05:37:54.369Z,2.56
2022-10-09T05:40:25.878Z,2.54
2022-10-09T05:42:57.289Z,2.55
2022-10-09T05:45:25.589Z,2.40
2022-10-09T05:47:53.646Z,2.37
2022-10-09T05:50:23.307Z,2.30
2022-10-09T05:52:51.718Z,2.30
2022-10-09T05:55:20.050Z,2.30
2022-10-09T05:57:48.130Z,2.39
2022-10-09T06:00:16.518Z,2.39
2022-10-09T06:02:44.570Z,2.40
2022-10-09T06:05:12.727Z,2.41
2022-10-09T06:07:42.087Z,2.45
2022-10-09T06:10:10.979Z,2.51
2022-10-09T06:12:39.016Z,2.50
2022-10-09T06:15:07.948Z,2.51
2022-10-09T06:17:36.094Z,2.64
2022-10-09T06:20:04.406Z,2.72
2022-10-09T06:22:32.489Z,2.79
2022-10-09T06:25:01.958Z,2.80
2022-10-09T06:27:29.964Z,3.02
2022-10-09T06:29:58.348Z,3.06
2022-10-09T06:32:26.323Z,3.26
2022-10-09T06:34:54.423Z,3.38
2022-10-09T06:37:22.376Z,3.54
2022-10-09T06:39:50.403Z,3.64
2022-10-09T06:42:19.887Z,3.81
2022-10-09T06:44:47.957Z,3.82
2022-10-09T06:47:16.236Z,3.94
2022-10-09T06:49:44.305Z,4.08
2022-10-09T06:52:12.372Z,4.14
2022-10-09T06:54:40.514Z,4.21
2022-10-09T06:57:08.624Z,4.35
2022-10-09T06:59:38.198Z,4.45
2022-10-09T07:02:06.221Z,4.51
2022-10-09T07:04:34.441Z,4.69
2022-10-09T07:07:02.909Z,4.76
2022-10-09T07:09:31.191Z,4.84
2022-10-09T07:11:59.266Z,5.01
2022-10-09T07:14:27.464Z,5.07
2022-10-09T07:16:57.024Z,5.08
2022-10-09T07:19:25.113Z,5.26
2022-10-09T07:21:53.393Z,5.26
2022-10-09T07:24:21.639Z,5.37
2022-10-09T07:26:49.780Z,5.36
2022-10-09T07:29:19.904Z,5.47
2022-10-09T07:31:47.915Z,5.54
2022-10-09T07:34:17.450Z,5.68
2022-10-09T07:36:45.552Z,5.71
2022-10-09T07:39:14.393Z,5.72
2022-10-09T07:41:43.554Z,5.90
2022-10-09T07:44:13.003Z,6.02
2022-10-09T07:46:41.556Z,6.23
2022-10-09T07:49:10.233Z,6.38
2022-10-09T07:51:40.238Z,6.47
2022-10-09T07:54:08.785Z,6.69
2022-10-09T07:56:39.274Z,6.77
2022-10-09T07:59:09.699Z,6.93
2022-10-09T08:01:38.267Z,7.00
2022-10-09T08:04:07.037Z,7.18
2022-10-09T08:06:36.270Z,7.27
2022-10-09T08:09:08.251Z,7.41
2022-10-09T08:11:40.708Z,7.56
2022-10-09T08:14:11.708Z,7.73
2022-10-09T08:16:43.519Z,7.88
2022-10-09T08:19:11.875Z,8.02
2022-10-09T08:21:39.986Z,8.17
2022-10-09T08:24:13.359Z,8.25
2022-10-09T08:26:42.546Z,8.56
2022-10-09T08:29:14.046Z,8.85
2022-10-09T08:31:42.275Z,8.93
2022-10-09T08:34:10.698Z,9.10
2022-10-09T08:36:39.100Z,9.30
2022-10-09T08:39:07.464Z,9.30
2022-10-09T08:41:48.640Z,9.48
2022-10-09T08:44:20.711Z,9.68
2022-10-09T08:46:59.585Z,9.77
2022-10-09T08:49:35.982Z,9.84
2022-10-09T08:52:24.660Z,10.21
2022-10-09T08:54:56.149Z,10.29
2022-10-09T08:57:32.444Z,10.43
2022-10-09T09:00:00.794Z,10.43
2022-10-09T09:02:47.307Z,10.43
2022-10-09T09:05:29.317Z,10.49
2022-10-09T09:08:06.794Z,10.70
2022-10-09T09:10:42.832Z,10.76
2022-10-09T09:13:31.119Z,10.86
2022-10-09T09:16:10.843Z,10.91
2022-10-09T09:18:45.179Z,11.10
2022-10-09T09:21:25.283Z,11.59
2022-10-09T09:23:53.392Z,11.68
2022-10-09T09:26:23.690Z,11.91
2022-10-09T09:28:58.161Z,11.73
2022-10-09T09:31:30.514Z,11.78
2022-10-09T09:34:06.180Z,11.81
2022-10-09T09:36:40.308Z,11.99
2022-10-09T09:42:08.805Z,12.29
2022-10-09T09:44:43.166Z,12.11
2022-10-09T09:47:16.527Z,12.16
2022-10-09T09:49:56.098Z,12.28
2022-10-09T09:52:27.338Z,12.44
2022-10-09T09:54:58.235Z,12.43
2022-10-09T09:57:34.615Z,12.47
2022-10-09T10:00:22.214Z,12.51
2022-10-09T10:02:51.241Z,12.54
2022-10-09T10:05:24.560Z,12.73
2022-10-09T10:07:52.983Z,12.65
2022-10-09T10:10:25.744Z,12.66
2022-10-09T10:12:59.277Z,12.74
2022-10-09T10:15:31.725Z,12.79
2022-10-09T10:18:02.732Z,12.68
2022-10-09T10:20:33.343Z,12.77
2022-10-09T10:23:02.492Z,13.02
2022-10-09T10:25:34.865Z,13.02
2022-10-09T10:28:12.603Z,13.11
2022-10-09T10:30:43.758Z,13.08
2022-10-09T10:33:20.039Z,13.21
2022-10-09T10:35:53.181Z,13.14
2022-10-09T10:38:26.972Z,13.13
2022-10-09T10:41:00.340Z,13.29
2022-10-09T10:43:36.756Z,13.27
2022-10-09T10:46:16.288Z,13.32
2022-10-09T10:48:47.233Z,13.52
2022-10-09T10:51:38.390Z,13.62
2022-10-09T10:54:20.922Z,13.38
2022-10-09T10:56:53.139Z,13.52
2022-10-09T10:59:34.897Z,13.53
2022-10-09T11:02:44.646Z,13.64
2022-10-09T11:05:22.527Z,13.69
2022-10-09T11:08:00.278Z,13.69
2022-10-09T11:10:37.081Z,13.71
2022-10-09T11:13:14.270Z,13.57
2022-10-09T11:15:55.958Z,13.51
2022-10-09T11:18:37.767Z,13.60
2022-10-09T11:21:19.084Z,13.76
2022-10-09T11:24:03.974Z,13.76
2022-10-09T11:26:40.849Z,13.54
2022-10-09T11:29:16.727Z,13.68
2022-10-09T11:31:50.629Z,13.63
2022-10-09T11:34:24.230Z,13.70
2022-10-09T11:36:52.498Z,13.79
2022-10-09T11:39:24.053Z,13.88
2022-10-09T11:41:54.485Z,13.81
2022-10-09T11:44:37.097Z,13.88
2022-10-09T11:47:14.153Z,13.85
2022-10-09T11:49:58.009Z,14.08
2022-10-09T11:52:32.124Z,13.95
2022-10-09T11:55:09.927Z,13.94
2022-10-09T11:57:38.104Z,14.15
2022-10-09T12:00:10.280Z,14.25
2022-10-09T12:02:40.130Z,14.18
2022-10-09T12:05:20.549Z,14.26
2022-10-09T12:07:48.854Z,14.40
2022-10-09T12:10:29.087Z,14.25
2022-10-09T12:13:00.233Z,14.39
2022-10-09T12:15:39.981Z,14.31
2022-10-09T12:18:20.836Z,14.40
2022-10-09T12:20:52.290Z,14.28
2022-10-09T12:23:27.398Z,14.35
2022-10-09T12:25:57.620Z,14.21
2022-10-09T12:28:34.820Z,14.15
2022-10-09T12:31:07.176Z,14.30
2022-10-09T12:33:39.930Z,14.47
2022-10-09T12:36:14.893Z,14.39
2022-10-09T12:38:44.237Z,14.43
2022-10-09T12:41:20.997Z,14.47
2022-10-09T12:43:51.108Z,14.52
2022-10-09T12:46:29.607Z,14.58
2022-10-09T12:48:59.666Z,14.52
2022-10-09T12:51:31.854Z,14.59
2022-10-09T12:54:00.262Z,14.62
2022-10-09T12:56:33.536Z,14.60
2022-10-09T12:59:03.090Z,14.76
2022-10-09T13:01:32.543Z,14.67
2022-10-09T13:04:03.693Z,14.70
2022-10-09T13:06:39.029Z,14.52
2022-10-09T13:09:09.565Z,14.69
2022-10-09T13:11:42.348Z,14.79
2022-10-09T13:14:26.176Z,14.88
2022-10-09T13:16:54.709Z,14.81
2022-10-09T13:19:25.725Z,14.68
2022-10-09T13:22:09.245Z,14.68
2022-10-09T13:24:37.526Z,14.79
2022-10-09T13:27:06.974Z,14.64
2022-10-09T13:29:35.325Z,14.68
2022-10-09T13:32:04.832Z,14.77
2022-10-09T13:34:33.182Z,14.75
2022-10-09T13:37:01.594Z,14.69
2022-10-09T13:39:31.208Z,14.68
2022-10-09T13:42:00.805Z,14.61
2022-10-09T13:44:28.998Z,14.55
2022-10-09T13:46:57.689Z,14.58
2022-10-09T13:49:26.161Z,14.68
2022-10-09T13:51:54.746Z,14.64
2022-10-09T13:54:23.111Z,14.49
2022-10-09T13:56:52.725Z,14.61
2022-10-09T13:59:21.238Z,14.64
2022-10-09T14:01:49.279Z,14.68
2022-10-09T14:04:18.006Z,14.68
2022-10-09T14:06:46.765Z,14.46
2022-10-09T14:09:15.013Z,14.45
2022-10-09T14:11:43.973Z,14.53
2022-10-09T14:14:13.780Z,14.47
2022-10-09T14:16:42.059Z,14.62
2022-10-09T14:19:11.350Z,14.49
2022-10-09T14:21:40.502Z,14.34
2022-10-09T14:24:08.869Z,14.30
2022-10-09T14:26:37.522Z,14.50
2022-10-09T14:29:05.824Z,14.48
2022-10-09T14:31:35.826Z,14.55
2022-10-09T14:34:04.105Z,14.52
2022-10-09T14:36:32.490Z,14.47
2022-10-09T14:39:01.821Z,14.59
2022-10-09T14:41:34.301Z,14.64
2022-10-09T14:44:05.887Z,14.55
2022-10-09T14:46:37.810Z,14.33
2022-10-09T14:49:08.343Z,14.25
2022-10-09T14:51:38.338Z,14.04
2022-10-09T14:54:07.906Z,13.94
2022-10-09T14:56:36.878Z,14.07
2022-10-09T14:59:06.512Z,14.02
2022-10-09T15:01:36.785Z,13.91
2022-10-09T15:04:05.886Z,13.76
2022-10-09T15:06:35.122Z,13.68
2022-10-09T15:09:06.210Z,13.72
2022-10-09T15:11:36.085Z,13.45
2022-10-09T15:14:05.159Z,13.42
2022-10-09T15:16:33.480Z,13.27
2022-10-09T15:19:05.849Z,13.44
2022-10-09T15:21:35.952Z,13.47
2022-10-09T15:24:05.974Z,13.33
2022-10-09T15:26:36.827Z,13.35
2022-10-09T15:29:08.168Z,13.33
2022-10-09T15:31:38.102Z,13.30
2022-10-09T15:34:09.511Z,13.29
2022-10-09T15:36:39.877Z,13.32
2022-10-09T15:39:09.266Z,13.19
2022-10-09T15:41:39.377Z,13.13
2022-10-09T15:44:09.526Z,12.99
2022-10-09T15:46:37.782Z,12.90
2022-10-09T15:49:07.553Z,12.93
2022-10-09T15:51:36.205Z,13.03
2022-10-09T15:54:04.918Z,13.06
2022-10-09T15:56:38.797Z,13.11
2022-10-09T15:59:08.105Z,12.88
2022-10-09T16:01:36.413Z,12.88
2022-10-09T16:04:04.662Z,12.76
2022-10-09T16:06:34.554Z,12.70
2022-10-09T16:09:04.106Z,12.64
2022-10-09T16:11:32.755Z,12.63
2022-10-09T16:14:01.181Z,12.62
2022-10-09T16:16:29.800Z,12.52
2022-10-09T16:18:58.478Z,12.37
2022-10-09T16:21:30.075Z,12.35
2022-10-09T16:24:01.088Z,12.27
2022-10-09T16:26:30.679Z,12.18
2022-10-09T16:29:00.145Z,12.06
2022-10-09T16:31:31.531Z,12.01
2022-10-09T16:34:00.222Z,11.96
2022-10-09T16:36:28.852Z,11.92
2022-10-09T16:38:58.216Z,11.92
2022-10-09T16:41:28.279Z,11.82
2022-10-09T16:44:00.408Z,11.74
2022-10-09T16:46:30.576Z,11.77
2022-10-09T16:49:00.750Z,11.68
2022-10-09T16:51:31.024Z,11.66
2022-10-09T16:54:01.944Z,11.53
2022-10-09T16:56:34.108Z,11.53
2022-10-09T16:59:05.262Z,11.48
2022-10-09T17:01:36.084Z,11.38
2022-10-09T17:04:04.793Z,11.24
2022-10-09T17:06:33.662Z,11.18
2022-10-09T17:09:01.938Z,11.05
2022-10-09T17:11:32.513Z,10.96
2022-10-09T17:14:01.265Z,10.88
2022-10-09T17:16:32.365Z,10.81
2022-10-09T17:19:01.769Z,10.79
2022-10-09T17:21:34.141Z,10.86
2022-10-09T17:24:05.827Z,10.70
2022-10-09T17:26:36.525Z,10.72
2022-10-09T17:29:05.906Z,10.74
2022-10-09T17:31:34.732Z,10.70
2022-10-09T17:34:04.855Z,10.68
2022-10-09T17:36:35.759Z,10.72
2022-10-09T17:39:05.414Z,10.65
2022-10-09T17:41:49.340Z,10.57
2022-10-09T17:44:18.355Z,10.44
2022-10-09T17:47:00.108Z,10.36
2022-10-09T17:49:29.297Z,10.18
2022-10-09T17:51:57.707Z,10.28
2022-10-09T17:54:26.195Z,10.19
2022-10-09T17:56:55.961Z,10.09
2022-10-09T17:59:24.228Z,10.09
2022-10-09T18:01:53.771Z,10.08
2022-10-09T18:04:22.353Z,10.12
2022-10-09T18:06:50.749Z,10.04
2022-10-09T18:09:19.870Z,10.05
2022-10-09T18:11:48.086Z,10.10
2022-10-09T18:14:17.565Z,10.07
2022-10-09T18:16:46.262Z,10.02
2022-10-09T18:19:18.533Z,9.90
2022-10-09T18:21:50.155Z,9.91
2022-10-09T18:24:18.845Z,9.88
2022-10-09T18:26:47.151Z,9.71
2022-10-09T18:29:15.268Z,9.82
2022-10-09T18:31:44.906Z,9.77
2022-10-09T18:34:13.404Z,9.71
2022-10-09T18:36:41.885Z,9.73
2022-10-09T18:39:14.504Z,9.68
2022-10-09T18:41:43.190Z,9.80
2022-10-09T18:44:17.867Z,9.75
2022-10-09T18:46:50.799Z,9.83
2022-10-09T18:49:22.919Z,9.83
2022-10-09T18:51:51.670Z,9.83
2022-10-09T18:54:23.641Z,9.77
2022-10-09T18:56:52.159Z,9.74
2022-10-09T18:59:23.834Z,9.60
2022-10-09T19:01:53.494Z,9.65
2022-10-09T19:04:21.738Z,9.64
2022-10-09T19:06:51.551Z,9.59
2022-10-09T19:09:19.670Z,9.50
2022-10-09T19:11:48.047Z,9.49
2022-10-09T19:14:16.394Z,9.53
2022-10-09T19:16:44.728Z,9.48
2022-10-09T19:19:14.692Z,9.41
2022-10-09T19:21:44.087Z,9.47
2022-10-09T19:24:13.342Z,9.51
2022-10-09T19:26:42.121Z,9.51
2022-10-09T19:29:10.668Z,9.52
2022-10-09T19:31:38.959Z,9.57
2022-10-09T19:34:07.380Z,9.57
2022-10-09T19:36:37.108Z,9.63
2022-10-09T19:39:05.794Z,9.70
2022-10-09T19:41:34.372Z,9.78
2022-10-09T19:44:02.643Z,9.73
2022-10-09T19:46:30.986Z,9.72
2022-10-09T19:48:59.404Z,9.72
2022-10-09T19:51:28.197Z,9.77
2022-10-09T19:54:00.395Z,9.76
2022-10-09T19:56:30.564Z,9.80
2022-10-09T19:59:01.861Z,9.77
2022-10-09T20:01:30.882Z,9.80
2022-10-09T20:04:00.362Z,9.75
2022-10-09T20:06:29.280Z,9.80
2022-10-09T20:08:58.888Z,9.79
2022-10-09T20:11:27.565Z,9.65
2022-10-09T20:13:56.686Z,9.59
2022-10-09T20:16:25.350Z,9.73
2022-10-09T20:18:55.222Z,9.60
2022-10-09T20:21:23.338Z,9.59
2022-10-09T20:23:51.507Z,9.58
2022-10-09T20:26:22.798Z,9.55
2022-10-09T20:28:52.517Z,9.59
2022-10-09T20:31:23.691Z,9.49
2022-10-09T20:33:52.534Z,9.45
2022-10-09T20:36:23.450Z,9.43
2022-10-09T20:38:51.833Z,9.40
2022-10-09T20:41:21.580Z,9.32
2022-10-09T20:43:52.284Z,9.39
2022-10-09T20:46:21.503Z,9.38
2022-10-09T20:48:49.786Z,9.40
2022-10-09T20:51:18.766Z,9.34
2022-10-09T20:53:47.657Z,9.35
2022-10-09T20:56:16.172Z,9.32
2022-10-09T20:58:46.065Z,9.21
2022-10-09T21:01:16.349Z,9.20
2022-10-09T21:03:45.469Z,9.14
2022-10-09T21:06:20.052Z,9.06
2022-10-09T21:08:48.309Z,8.94
2022-10-09T21:11:17.935Z,8.89
2022-10-09T21:13:48.256Z,8.87
2022-10-09T21:16:19.952Z,8.75
2022-10-09T21:18:48.824Z,8.78
2022-10-09T21:21:19.351Z,8.81
2022-10-09T21:23:51.112Z,8.81
2022-10-09T21:26:21.131Z,8.79
2022-10-09T21:28:55.455Z,8.85
2022-10-09T21:31:28.734Z,8.79
2022-10-09T21:33:58.118Z,8.71
2022-10-09T21:36:35.626Z,8.66
2022-10-09T21:39:05.669Z,8.60
2022-10-09T21:41:34.560Z,8.56
2022-10-09T21:44:04.966Z,8.56
2022-10-09T21:46:33.477Z,8.67
2022-10-09T21:49:06.751Z,8.76
2022-10-09T21:51:35.458Z,8.83
2022-10-09T21:54:03.714Z,8.75
2022-10-09T21:56:32.007Z,8.72
2022-10-09T21:59:00.506Z,8.67
2022-10-09T22:01:30.281Z,8.56
2022-10-09T22:03:58.799Z,8.51
2022-10-09T22:06:27.172Z,8.51
2022-10-09T22:08:55.568Z,8.46
2022-10-09T22:11:24.245Z,8.45
2022-10-09T22:13:52.644Z,8.42
2022-10-09T22:16:20.845Z,8.44
2022-10-09T22:18:50.563Z,8.44
2022-10-09T22:21:19.315Z,8.43
2022-10-09T22:23:47.689Z,8.47
2022-10-09T22:26:18.354Z,8.49
2022-10-09T22:28:47.369Z,8.38
2022-10-09T22:31:18.308Z,8.49
2022-10-09T22:33:53.321Z,8.52
2022-10-09T22:36:24.360Z,8.46
2022-10-09T22:38:56.044Z,8.52
2022-10-09T22:41:26.252Z,8.49
2022-10-09T22:43:56.179Z,8.48
2022-10-09T22:46:26.507Z,8.45
2022-10-09T22:48:58.262Z,8.44
2022-10-09T22:51:28.488Z,8.45
2022-10-09T22:53:57.989Z,8.44
2022-10-09T22:56:28.100Z,8.41
2022-10-09T22:58:57.305Z,8.49
2022-10-09T23:01:30.527Z,8.38
2022-10-09T23:04:01.133Z,8.32
2022-10-09T23:06:29.643Z,8.27
2022-10-09T23:08:58.336Z,8.22
2022-10-09T23:11:27.029Z,8.19
2022-10-09T23:13:56.613Z,8.16
2022-10-09T23:16:25.949Z,8.12
2022-10-09T23:18:54.191Z,8.04
2022-10-09T23:21:25.554Z,8.13
2022-10-09T23:23:54.858Z,8.12
2022-10-09T23:26:25.269Z,8.14
2022-10-09T23:28:55.240Z,8.15
2022-10-09T23:31:24.641Z,8.15
2022-10-09T23:33:53.306Z,8.09
2022-10-09T23:36:25.480Z,8.06
2022-10-09T23:38:54.458Z,8.00
2022-10-09T23:41:25.130Z,7.99
2022-10-09T23:43:53.882Z,7.94
2022-10-09T23:46:23.633Z,7.94
2022-10-09T23:48:53.159Z,7.90
2022-10-09T23:51:24.883Z,7.85
2022-10-09T23:53:53.460Z,7.81
2022-10-09T23:56:25.031Z,7.76
2022-10-09T23:58:54.432Z,7.70
